Time;durP1;ratioP1;P1;durP2;ratioP2;P2;SDS_P1;SDS_P2;PMS_P1;PMS_P2;Temp;Humidity;BMP_temperature;BMP_pressure;BME280_temperature;BME280_humidity;BME280_pressure;Samples;Min_cycle;Max_cycle;Signal;HPM_P1;HPM_P2
2021/04/01 00:01:07;;;;;;;26.57;24.37;;;13.30;99.90;;;;;;5095100;28;20841;-65
2021/04/01 00:03:33;;;;;;;24.37;22.37;;;13.30;99.90;;;;;;5094746;28;20458;-67
2021/04/01 00:05:59;;;;;;;28.53;26.03;;;13.20;99.90;;;;;;5094911;28;20438;-66
2021/04/01 00:08:26;;;;;;;31.50;28.30;;;13.20;99.90;;;;;;5094940;28;20442;-65
2021/04/01 00:10:52;;;;;;;27.53;25.27;;;13.20;99.90;;;;;;5094856;28;20442;-65
2021/04/01 00:13:18;;;;;;;30.57;27.57;;;13.20;99.90;;;;;;5094725;28;20829;-65
2021/04/01 00:15:45;;;;;;;31.03;28.27;;;13.20;99.90;;;;;;5094821;28;20482;-64
2021/04/01 00:18:15;;;;;;;28.60;26.00;;;13.10;99.90;;;;;;5094857;28;20449;-65
2021/04/01 00:20:42;;;;;;;27.30;24.87;;;13.20;99.90;;;;;;5094783;28;20446;-67
2021/04/01 00:23:08;;;;;;;27.40;25.23;;;13.20;99.90;;;;;;5094241;28;20485;-66
2021/04/01 00:25:35;;;;;;;26.20;24.00;;;13.20;99.90;;;;;;5094750;28;20434;-65
2021/04/01 00:28:01;;;;;;;25.63;23.57;;;13.10;99.90;;;;;;5094841;28;20446;-65
2021/04/01 00:30:28;;;;;;;25.57;23.67;;;13.10;99.90;;;;;;5094646;28;20504;-65
2021/04/01 00:32:54;;;;;;;26.43;23.83;;;13.10;99.90;;;;;;5094215;28;20877;-66
2021/04/01 00:35:20;;;;;;;28.63;26.27;;;13.10;99.90;;;;;;5094418;28;20474;-65
2021/04/01 00:37:46;;;;;;;27.10;24.60;;;13.00;99.90;;;;;;5094381;28;20504;-65
2021/04/01 00:40:13;;;;;;;26.20;23.90;;;13.00;99.90;;;;;;5094239;28;20445;-66
2021/04/01 00:42:41;;;;;;;26.33;23.97;;;13.00;99.90;;;;;;5094103;28;20442;-65
2021/04/01 00:45:09;;;;;;;27.73;25.03;;;13.00;99.90;;;;;;5094324;28;20434;-65
2021/04/01 00:47:37;;;;;;;26.60;24.50;;;12.90;99.90;;;;;;5094199;28;20438;-66
2021/04/01 00:50:05;;;;;;;26.40;24.30;;;12.90;99.90;;;;;;5094256;28;20931;-65
2021/04/01 00:52:31;;;;;;;25.53;23.33;;;12.90;99.90;;;;;;5094119;28;20438;-65
2021/04/01 00:54:57;;;;;;;26.50;23.80;;;12.90;99.90;;;;;;5093753;28;20516;-65
2021/04/01 00:57:23;;;;;;;25.27;22.97;;;12.80;99.90;;;;;;5094094;28;20932;-66
2021/04/01 00:59:51;;;;;;;25.37;23.30;;;12.80;99.90;;;;;;5093928;28;20920;-65
2021/04/01 01:02:17;;;;;;;23.80;21.97;;;12.80;99.90;;;;;;5092640;28;20507;-66
2021/04/01 01:04:44;;;;;;;26.23;23.70;;;12.80;99.90;;;;;;5093529;28;20447;-66
2021/04/01 01:07:10;;;;;;;25.83;23.70;;;12.80;99.90;;;;;;5093730;28;20442;-66
2021/04/01 01:09:36;;;;;;;28.10;25.50;;;12.80;99.90;;;;;;5093896;28;20841;-66
2021/04/01 01:12:03;;;;;;;26.53;24.50;;;12.80;99.90;;;;;;5093752;28;20450;-66
2021/04/01 01:14:30;;;;;;;28.50;26.20;;;12.80;99.90;;;;;;5093241;28;20586;-66
2021/04/01 01:16:57;;;;;;;25.17;23.17;;;12.70;99.90;;;;;;5093740;28;20450;-66
2021/04/01 01:19:23;;;;;;;26.57;23.70;;;12.70;99.90;;;;;;5093579;28;20442;-66
2021/04/01 01:21:50;;;;;;;26.50;23.77;;;12.70;99.90;;;;;;5093649;28;20438;-66
2021/04/01 01:24:18;;;;;;;27.20;24.93;;;12.60;99.90;;;;;;5093015;28;20466;-66
2021/04/01 01:26:46;;;;;;;28.30;25.70;;;12.60;99.90;;;;;;5093671;28;20951;-66
2021/04/01 01:29:13;;;;;;;27.30;25.03;;;12.60;99.90;;;;;;5093298;28;20438;-66
2021/04/01 01:31:44;;;;;;;25.57;23.17;;;12.50;99.90;;;;;;5093346;28;20446;-66
2021/04/01 01:34:10;;;;;;;26.57;24.27;;;12.50;99.90;;;;;;5092942;28;20478;-66
2021/04/01 01:36:36;;;;;;;27.87;25.60;;;12.50;99.90;;;;;;5093344;28;20442;-66
2021/04/01 01:39:03;;;;;;;26.10;23.90;;;12.40;99.90;;;;;;5093117;28;20438;-66
2021/04/01 01:41:30;;;;;;;26.03;23.80;;;12.40;99.90;;;;;;5093111;28;20450;-66
2021/04/01 01:43:57;;;;;;;24.47;22.63;;;12.40;99.90;;;;;;5092839;28;20824;-66
2021/04/01 01:46:24;;;;;;;27.53;25.40;;;12.40;99.90;;;;;;5093007;28;20438;-66
2021/04/01 01:48:50;;;;;;;25.40;23.27;;;12.30;99.90;;;;;;5093046;28;20442;-66
2021/04/01 01:51:16;;;;;;;23.27;21.47;;;12.30;99.90;;;;;;5093032;28;20442;-66
2021/04/01 01:53:43;;;;;;;25.43;23.00;;;12.30;99.90;;;;;;5092434;28;20466;-66
2021/04/01 01:56:09;;;;;;;25.80;23.80;;;12.30;99.90;;;;;;5092862;28;20996;-66
2021/04/01 01:58:36;;;;;;;24.37;22.70;;;12.30;99.90;;;;;;5092781;28;20453;-66
2021/04/01 02:01:05;;;;;;;25.53;23.13;;;12.30;99.90;;;;;;5092709;28;20446;-66
2021/04/01 02:03:31;;;;;;;23.53;21.67;;;12.20;99.90;;;;;;5092362;28;20555;-66
2021/04/01 02:05:57;;;;;;;24.70;22.70;;;12.30;99.90;;;;;;5092686;28;20966;-66
2021/04/01 02:08:24;;;;;;;25.17;22.90;;;12.30;99.90;;;;;;5092652;28;20446;-66
2021/04/01 02:10:51;;;;;;;26.53;24.07;;;12.30;99.90;;;;;;5092729;28;20548;-66
2021/04/01 02:13:20;;;;;;;24.90;22.80;;;12.30;99.90;;;;;;5091995;28;20468;-66
2021/04/01 02:15:49;;;;;;;25.73;23.40;;;12.30;99.90;;;;;;5092520;28;21022;-66
2021/04/01 02:18:17;;;;;;;25.73;23.63;;;12.20;99.90;;;;;;5092498;28;20449;-66
2021/04/01 02:20:46;;;;;;;27.33;25.13;;;12.20;99.90;;;;;;5092446;28;20469;-66
2021/04/01 02:23:14;;;;;;;24.40;21.90;;;12.20;99.90;;;;;;5091967;28;20485;-66
2021/04/01 02:25:41;;;;;;;25.63;23.60;;;12.10;99.90;;;;;;5092346;28;20442;-66
2021/04/01 02:28:09;;;;;;;25.53;23.47;;;12.10;99.90;;;;;;5092586;28;20487;-66
2021/04/01 02:30:36;;;;;;;25.23;23.13;;;12.10;99.90;;;;;;5092224;28;20449;-66
2021/04/01 02:33:04;;;;;;;28.27;23.40;;;12.00;99.90;;;;;;5091963;28;20469;-66
2021/04/01 02:35:31;;;;;;;27.00;24.90;;;12.10;99.90;;;;;;5092074;28;20478;-66
2021/04/01 02:37:57;;;;;;;26.33;24.03;;;12.10;99.90;;;;;;5092357;28;20442;-66
2021/04/01 02:40:25;;;;;;;26.90;24.23;;;12.00;99.90;;;;;;5092056;28;20442;-66
2021/04/01 02:42:51;;;;;;;25.10;23.17;;;12.00;99.90;;;;;;5091765;28;20438;-66
2021/04/01 02:45:17;;;;;;;26.13;24.07;;;11.90;99.90;;;;;;5091700;28;20442;-66
2021/04/01 02:47:43;;;;;;;24.60;22.50;;;11.90;99.90;;;;;;5091719;28;20438;-66
2021/04/01 02:50:13;;;;;;;26.03;23.60;;;11.80;99.90;;;;;;5091642;28;20442;-66
2021/04/01 02:52:39;;;;;;;24.93;22.93;;;11.90;99.90;;;;;;5091700;28;20823;-66
2021/04/01 02:55:08;;;;;;;26.30;24.17;;;11.90;99.90;;;;;;5091554;28;20478;-66
2021/04/01 02:57:37;;;;;;;27.33;24.70;;;11.90;99.90;;;;;;5091578;28;20826;-66
2021/04/01 03:00:07;;;;;;;25.90;23.50;;;11.90;99.90;;;;;;5091673;28;20449;-66
2021/04/01 03:02:35;;;;;;;25.90;23.80;;;12.00;99.90;;;;;;5091479;28;20449;-66
2021/04/01 03:05:05;;;;;;;24.07;21.77;;;11.90;99.90;;;;;;5091329;28;20462;-66
2021/04/01 03:07:32;;;;;;;24.23;22.20;;;12.00;99.90;;;;;;5091577;28;20446;-66
2021/04/01 03:09:58;;;;;;;25.47;22.93;;;12.00;99.90;;;;;;5091531;28;20438;-66
2021/04/01 03:12:24;;;;;;;23.90;21.73;;;12.00;99.90;;;;;;5091492;28;21107;-66
2021/04/01 03:14:51;;;;;;;24.90;22.70;;;12.00;99.90;;;;;;5091057;28;20481;-66
2021/04/01 03:17:17;;;;;;;22.80;20.93;;;12.00;99.90;;;;;;5091461;28;20861;-66
2021/04/01 03:19:43;;;;;;;23.30;21.30;;;12.00;99.90;;;;;;5091506;28;20449;-66
2021/04/01 03:22:09;;;;;;;25.10;22.60;;;12.00;99.90;;;;;;5091369;28;20462;-66
2021/04/01 03:24:36;;;;;;;27.20;24.80;;;12.10;99.90;;;;;;5090934;28;20477;-66
2021/04/01 03:27:03;;;;;;;25.53;23.47;;;12.10;99.90;;;;;;5094300;28;20444;-66
2021/04/01 03:29:29;;;;;;;24.17;22.37;;;12.20;99.90;;;;;;5095403;28;20446;-66
2021/04/01 03:31:55;;;;;;;25.07;22.73;;;12.20;99.90;;;;;;5095326;28;20854;-66
2021/04/01 03:34:22;;;;;;;23.20;21.50;;;12.20;99.90;;;;;;5095044;28;20501;-66
2021/04/01 03:36:49;;;;;;;23.90;22.10;;;12.20;99.90;;;;;;5095249;28;20445;-66
2021/04/01 03:39:15;;;;;;;24.30;21.70;;;12.20;99.90;;;;;;5095268;28;20441;-66
2021/04/01 03:41:42;;;;;;;24.87;22.90;;;12.20;99.90;;;;;;5094886;28;20449;-66
2021/04/01 03:44:09;;;;;;;23.03;21.13;;;12.10;99.90;;;;;;5094875;28;20465;-67
2021/04/01 03:46:35;;;;;;;23.43;21.20;;;12.10;99.90;;;;;;5095141;28;20465;-66
2021/04/01 03:49:04;;;;;;;23.20;21.37;;;12.10;99.90;;;;;;5095054;28;20464;-66
2021/04/01 03:51:30;;;;;;;23.33;21.03;;;12.10;99.90;;;;;;5094978;28;20442;-66
2021/04/01 03:53:57;;;;;;;22.97;20.97;;;12.10;99.90;;;;;;5094592;28;20477;-66
2021/04/01 03:56:23;;;;;;;24.13;22.07;;;12.00;99.90;;;;;;5094863;28;20446;-66
2021/04/01 03:58:58;;;;;;;23.00;20.90;;;12.10;99.90;;;;;;5094908;28;20525;-66
2021/04/01 04:01:51;;;;;;;24.63;22.70;;;12.00;99.90;;;;;;5094926;28;20484;-66
2021/04/01 04:04:26;;;;;;;23.57;21.63;;;12.00;99.90;;;;;;5094588;28;20995;-66
2021/04/01 04:07:27;;;;;;;25.70;23.77;;;12.00;99.90;;;;;;5094897;28;20437;-66
2021/04/01 04:10:01;;;;;;;24.20;22.40;;;12.00;99.90;;;;;;5094714;28;20932;-66
2021/04/01 04:12:37;;;;;;;24.50;22.80;;;11.90;99.90;;;;;;5094578;28;20442;-66
2021/04/01 04:15:10;;;;;;;24.47;22.57;;;11.90;99.90;;;;;;5094435;28;20484;-66
2021/04/01 04:17:36;;;;;;;26.23;23.93;;;11.90;99.90;;;;;;5094552;28;20449;-66
2021/04/01 04:20:04;;;;;;;25.40;23.47;;;11.80;99.90;;;;;;5094526;28;20797;-66
2021/04/01 04:22:30;;;;;;;24.37;22.53;;;11.80;99.90;;;;;;5094424;28;20449;-66
2021/04/01 04:24:56;;;;;;;24.37;22.33;;;11.80;99.90;;;;;;5094234;28;20454;-66
2021/04/01 04:27:43;;;;;;;24.57;22.37;;;11.80;99.90;;;;;;5094265;28;20431;-66
2021/04/01 04:30:12;;;;;;;25.03;23.23;;;11.80;99.90;;;;;;5094261;28;20442;-66
2021/04/01 04:32:39;;;;;;;25.00;22.93;;;11.90;99.90;;;;;;5094086;28;20808;-66
2021/04/01 04:35:06;;;;;;;26.97;24.67;;;11.90;99.90;;;;;;5093985;28;20531;-66
2021/04/01 04:37:32;;;;;;;25.40;23.10;;;11.90;99.90;;;;;;5093783;28;20806;-66
2021/04/01 04:39:58;;;;;;;24.60;22.53;;;11.90;99.90;;;;;;5093993;28;20446;-66
2021/04/01 04:42:25;;;;;;;27.77;25.20;;;12.00;99.90;;;;;;5093945;28;20442;-66
2021/04/01 04:44:51;;;;;;;26.50;24.00;;;12.00;99.90;;;;;;5093570;28;20465;-66
2021/04/01 04:47:18;;;;;;;24.33;22.37;;;12.00;99.90;;;;;;5094172;28;20456;-66
2021/04/01 04:49:45;;;;;;;26.27;23.60;;;12.00;99.90;;;;;;5093663;28;20442;-66
2021/04/01 04:52:11;;;;;;;27.43;25.40;;;11.90;99.90;;;;;;5093754;28;20438;-66
2021/04/01 04:54:37;;;;;;;30.60;27.63;;;11.90;99.90;;;;;;5093453;28;20485;-66
2021/04/01 04:57:10;;;;;;;29.50;26.67;;;11.80;99.90;;;;;;5093765;28;20438;-66
2021/04/01 04:59:42;;;;;;;28.77;26.43;;;11.80;99.90;;;;;;5093676;28;20482;-66
2021/04/01 05:04:55;;;;;;;30.77;28.23;;;11.70;99.90;;;;;;5093303;28;20429;-66
2021/04/01 05:07:21;;;;;;;32.63;29.33;;;11.60;99.90;;;;;;5093257;28;20461;-66
2021/04/01 05:09:47;;;;;;;29.43;26.93;;;11.60;99.90;;;;;;5091813;28;20796;-66
2021/04/01 05:12:16;;;;;;;25.53;23.73;;;11.60;99.90;;;;;;5091878;28;20442;-66
2021/04/01 05:14:42;;;;;;;25.40;23.43;;;11.60;99.90;;;;;;5091816;28;20482;-66
2021/04/01 05:17:09;;;;;;;27.37;25.17;;;11.60;99.90;;;;;;5092089;28;20442;-66
2021/04/01 05:19:37;;;;;;;29.20;26.37;;;11.50;99.90;;;;;;5092073;28;20450;-65
2021/04/01 05:22:07;;;;;;;29.53;27.03;;;11.50;99.90;;;;;;5092156;28;20446;-66
2021/04/01 05:24:37;;;;;;;30.03;27.20;;;11.50;99.90;;;;;;5091703;28;20478;-66
2021/04/01 05:27:10;;;;;;;29.87;27.40;;;11.40;99.90;;;;;;5123185;22;20481;-64
2021/04/01 05:29:38;;;;;;;26.97;24.87;;;11.50;99.90;;;;;;5105082;28;20452;-66
2021/04/01 05:32:06;;;;;;;28.40;25.80;;;11.50;99.90;;;;;;5123322;28;20441;-66
2021/04/01 05:34:32;;;;;;;30.33;27.73;;;11.50;99.90;;;;;;5119409;28;20510;-64
2021/04/01 05:37:00;;;;;;;28.43;26.27;;;11.50;99.90;;;;;;5113476;28;20875;-61
2021/04/01 05:39:32;;;;;;;28.47;26.03;;;11.50;99.90;;;;;;5113612;28;20445;-64
2021/04/01 05:42:00;;;;;;;27.00;24.67;;;11.50;99.90;;;;;;5113330;28;20869;-64
2021/04/01 05:44:32;;;;;;;28.47;26.17;;;11.50;99.90;;;;;;5113023;28;20448;-64
2021/04/01 05:47:03;;;;;;;29.47;26.37;;;11.50;99.90;;;;;;5113196;28;20465;-64
2021/04/01 05:49:39;;;;;;;29.90;27.40;;;11.50;99.90;;;;;;5112259;28;20449;-64
2021/04/01 05:58:26;;;;;;;28.27;25.97;;;11.50;99.90;;;;;;5112982;28;20444;-63
2021/04/01 06:01:22;;;;;;;25.77;23.77;;;11.40;99.90;;;;;;5090415;28;20457;-63
2021/04/01 06:03:59;;;;;;;26.23;24.10;;;11.50;99.90;;;;;;5112775;28;20444;-64
2021/04/01 06:06:31;;;;;;;26.80;24.27;;;11.50;99.90;;;;;;5112786;28;20468;-64
2021/04/01 06:09:01;;;;;;;26.73;24.43;;;11.50;99.90;;;;;;5112820;28;20533;-63
2021/04/01 06:11:28;;;;;;;25.10;23.13;;;11.60;99.90;;;;;;5112633;28;20446;-61
2021/04/01 06:14:08;;;;;;;25.93;23.90;;;11.60;99.90;;;;;;5112478;28;20802;-62
2021/04/01 06:16:36;;;;;;;26.67;24.47;;;11.70;99.90;;;;;;5112535;28;20539;-63
2021/04/01 06:19:06;;;;;;;25.77;23.37;;;11.70;99.90;;;;;;5112649;28;20442;-63
2021/04/01 06:21:40;;;;;;;27.57;24.93;;;11.80;99.90;;;;;;5112526;28;20500;-63
2021/04/01 06:24:22;;;;;;;27.73;25.33;;;11.90;99.90;;;;;;5112352;28;20457;-64
2021/04/01 06:26:54;;;;;;;26.53;24.20;;;12.00;99.90;;;;;;5112179;28;20891;-63
2021/04/01 06:29:21;;;;;;;29.03;26.50;;;12.10;99.90;;;;;;5112467;28;20441;-61
2021/04/01 06:31:50;;;;;;;28.33;24.23;;;12.20;99.90;;;;;;5112202;28;20465;-61
2021/04/01 06:34:29;;;;;;;26.20;23.90;;;12.30;99.90;;;;;;5112044;28;20480;-63
2021/04/01 06:36:56;;;;;;;27.57;25.17;;;12.40;99.90;;;;;;5112147;28;20973;-62
2021/04/01 06:39:23;;;;;;;26.37;23.73;;;12.50;99.90;;;;;;5112265;28;20540;-63
2021/04/01 06:42:02;;;;;;;25.57;23.47;;;12.60;99.90;;;;;;5112021;28;20484;-62
2021/04/01 06:44:31;;;;;;;27.00;24.73;;;12.70;99.90;;;;;;5111988;28;20433;-63
2021/04/01 06:47:07;;;;;;;28.07;25.30;;;12.70;99.90;;;;;;5112043;28;20465;-63
2021/04/01 06:50:00;;;;;;;29.03;26.00;;;12.80;99.90;;;;;;5111945;28;20494;-64
2021/04/01 06:52:33;;;;;;;26.00;24.00;;;12.90;99.90;;;;;;5112038;28;20939;-64
2021/04/01 06:55:06;;;;;;;26.53;24.50;;;13.10;99.90;;;;;;5111767;28;20469;-62
2021/04/01 06:57:50;;;;;;;27.37;24.60;;;13.20;99.90;;;;;;5111893;28;20996;-62
2021/04/01 07:03:04;;;;;;;27.60;25.40;;;13.40;99.90;;;;;;5106909;28;20425;-63
2021/04/01 07:05:45;;;;;;;28.47;25.67;;;13.50;99.90;;;;;;5111820;28;20444;-63
2021/04/01 07:08:14;;;;;;;28.87;26.17;;;13.70;99.90;;;;;;5111902;28;20437;-64
2021/04/01 07:10:52;;;;;;;31.03;28.40;;;13.70;99.90;;;;;;5111785;28;20445;-64
2021/04/01 07:13:25;;;;;;;30.10;27.30;;;13.80;99.90;;;;;;5111736;28;20781;-64
2021/04/01 07:15:59;;;;;;;30.93;28.37;;;13.90;99.90;;;;;;5111794;28;20477;-64
2021/04/01 07:18:36;;;;;;;28.67;26.60;;;14.00;99.90;;;;;;5112005;28;20464;-64
2021/04/01 07:22:22;;;;;;;30.40;28.10;;;14.10;99.90;;;;;;5112008;28;20449;-64
2021/04/01 07:46:39;;;;;;;32.53;29.70;;;15.20;99.90;;;;;;5111559;28;20459;-64
2021/04/01 07:49:15;;;;;;;35.90;32.30;;;15.30;99.30;;;;;;5111544;28;20814;-64
2021/04/01 07:51:57;;;;;;;35.87;32.57;;;15.50;98.50;;;;;;5111487;28;20938;-64
2021/04/01 07:54:40;;;;;;;40.10;35.80;;;15.60;98.30;;;;;;5111217;28;20582;-59
2021/04/01 08:00:11;;;;;;;39.43;35.30;;;15.70;95.00;;;;;;5107569;28;20786;-63
2021/04/01 08:05:28;;;;;;;43.63;38.93;;;16.00;93.30;;;;;;5107533;28;20429;-64
2021/04/01 08:07:58;;;;;;;45.83;40.83;;;16.20;92.70;;;;;;5111241;28;20461;-63
2021/04/01 08:10:28;;;;;;;42.07;37.67;;;16.30;91.80;;;;;;5111199;28;20476;-64
2021/04/01 08:13:01;;;;;;;49.50;41.10;;;16.50;91.40;;;;;;5113447;28;20544;-63
2021/04/01 08:15:34;;;;;;;41.23;37.10;;;16.70;89.90;;;;;;5115001;28;20481;-64
2021/04/01 08:18:14;;;;;;;43.37;38.77;;;16.90;89.20;;;;;;5114968;28;20821;-64
2021/04/01 08:20:44;;;;;;;40.10;34.57;;;17.00;90.70;;;;;;5114939;28;20456;-64
2021/04/01 08:23:16;;;;;;;41.80;37.50;;;17.10;90.00;;;;;;5114870;28;20442;-64
2021/04/01 08:25:47;;;;;;;44.13;39.80;;;17.30;89.90;;;;;;5114819;28;20437;-64
2021/04/01 08:28:25;;;;;;;46.33;41.37;;;17.40;87.60;;;;;;5114785;28;20442;-64
2021/04/01 08:33:55;;;;;;;48.17;42.50;;;17.60;83.70;;;;;;5114526;28;20474;-63
2021/04/01 08:36:23;;;;;;;53.20;44.77;;;17.80;79.40;;;;;;5114553;28;20485;-64
2021/04/01 08:38:50;;;;;;;52.90;44.80;;;17.80;72.90;;;;;;5114523;28;20839;-64
2021/04/01 08:41:29;;;;;;;55.90;47.20;;;17.70;66.60;;;;;;5114570;28;20923;-64
2021/04/01 08:44:16;;;;;;;57.03;47.00;;;17.80;63.80;;;;;;5114427;28;20444;-63
2021/04/01 08:46:57;;;;;;;55.23;46.70;;;17.90;61.80;;;;;;5114653;28;20865;-63
2021/04/01 08:49:38;;;;;;;60.53;46.07;;;17.90;58.40;;;;;;5114415;28;20437;-63
2021/04/01 08:52:21;;;;;;;57.43;48.60;;;18.00;57.60;;;;;;5114237;28;20442;-63
2021/04/01 08:54:55;;;;;;;62.13;47.60;;;18.10;57.70;;;;;;5114115;28;20481;-62
2021/04/01 08:57:28;;;;;;;64.67;47.60;;;18.10;56.10;;;;;;5114143;28;20548;-60
2021/04/01 09:00:05;;;;;;;55.23;49.13;;;18.20;56.40;;;;;;5114111;28;20448;-60
2021/04/01 09:02:32;;;;;;;66.57;47.97;;;18.40;56.30;;;;;;5115825;28;20811;-66
2021/04/01 09:05:02;;;;;;;62.37;50.07;;;18.50;55.10;;;;;;5116620;28;20803;-65
2021/04/01 09:07:36;;;;;;;53.80;44.57;;;18.60;55.40;;;;;;5116746;28;20453;-65
2021/04/01 09:10:05;;;;;;;51.77;45.83;;;18.60;54.70;;;;;;5117688;28;20446;-64
2021/04/01 09:12:42;;;;;;;53.90;43.40;;;18.90;54.30;;;;;;5118829;28;20456;-66
2021/04/01 09:15:17;;;;;;;60.63;47.70;;;18.90;53.70;;;;;;5117188;28;20477;-65
2021/04/01 09:17:46;;;;;;;55.77;47.00;;;19.00;53.50;;;;;;5114334;28;20469;-62
2021/04/01 09:20:17;;;;;;;53.60;46.17;;;19.10;53.30;;;;;;5113634;27;20473;-59
2021/04/01 09:22:44;;;;;;;60.90;49.80;;;19.30;53.80;;;;;;5113217;28;20446;-64
2021/04/01 09:25:12;;;;;;;59.57;46.57;;;19.30;54.10;;;;;;5112742;28;20448;-64
2021/04/01 09:27:47;;;;;;;52.17;44.40;;;19.50;53.90;;;;;;5113530;28;20477;-63
2021/04/01 09:30:15;;;;;;;61.37;44.27;;;19.50;52.90;;;;;;5113358;28;20453;-63
2021/04/01 09:32:44;;;;;;;49.83;44.53;;;19.60;53.00;;;;;;5116690;28;20437;-64
2021/04/01 09:35:11;;;;;;;48.93;41.17;;;19.50;52.90;;;;;;5116211;28;20477;-65
2021/04/01 09:37:50;;;;;;;46.67;41.57;;;19.50;52.60;;;;;;5113370;28;20618;-63
2021/04/01 09:40:18;;;;;;;52.93;43.00;;;19.50;52.50;;;;;;5113286;28;20441;-63
2021/04/01 09:42:46;;;;;;;52.23;43.57;;;19.50;53.00;;;;;;5113338;28;20485;-63
2021/04/01 09:45:14;;;;;;;59.23;43.93;;;19.40;52.30;;;;;;5113072;28;20945;-63
2021/04/01 09:47:46;;;;;;;53.73;43.30;;;19.60;52.30;;;;;;5113014;28;20465;-63
2021/04/01 09:50:14;;;;;;;48.03;42.83;;;19.60;52.20;;;;;;5112992;28;20453;-63
2021/04/01 09:52:41;;;;;;;53.40;43.40;;;19.70;51.50;;;;;;5112163;28;20499;-62
2021/04/01 09:55:14;;;;;;;50.90;44.07;;;19.80;51.60;;;;;;5112806;28;20477;-60
2021/04/01 09:57:44;;;;;;;46.27;41.37;;;19.90;51.20;;;;;;5112978;28;20985;-63
2021/04/01 10:00:19;;;;;;;50.40;41.83;;;20.10;51.90;;;;;;5113037;28;20541;-62
2021/04/01 10:02:58;;;;;;;48.70;41.03;;;20.00;51.00;;;;;;5117598;28;20449;-66
2021/04/01 10:05:26;;;;;;;47.63;40.60;;;20.30;51.10;;;;;;5120495;28;20450;-65
2021/04/01 10:07:56;;;;;;;54.57;41.50;;;20.40;50.60;;;;;;5113329;28;20465;-64
2021/04/01 10:10:39;;;;;;;51.33;42.27;;;20.10;50.40;;;;;;5112845;28;20934;-64
2021/04/01 10:13:19;;;;;;;52.70;43.63;;;20.20;50.60;;;;;;5112637;28;20516;-64
2021/04/01 10:15:46;;;;;;;51.50;44.03;;;20.30;51.00;;;;;;5112585;28;20473;-63
2021/04/01 10:18:15;;;;;;;58.33;47.83;;;20.40;51.00;;;;;;5115043;28;20464;-65
2021/04/01 10:20:49;;;;;;;55.40;44.63;;;20.60;50.70;;;;;;5116109;28;20465;-66
2021/04/01 10:23:16;;;;;;;59.53;45.93;;;20.70;50.50;;;;;;5112821;28;20453;-63
2021/04/01 10:25:50;;;;;;;49.17;42.07;;;20.80;49.80;;;;;;5112333;28;20433;-63
2021/04/01 10:28:27;;;;;;;49.40;44.10;;;20.60;49.30;;;;;;5112491;28;20433;-63
2021/04/01 10:30:56;;;;;;;52.33;41.73;;;20.90;49.80;;;;;;5112747;28;20799;-63
2021/04/01 10:33:32;;;;;;;49.17;42.70;;;21.20;48.10;;;;;;5112181;28;20468;-63
2021/04/01 10:36:02;;;;;;;52.33;45.17;;;21.30;48.30;;;;;;5111963;28;20810;-63
2021/04/01 10:38:29;;;;;;;64.97;46.63;;;21.70;48.60;;;;;;5113442;28;20449;-65
2021/04/01 10:41:09;;;;;;;47.40;42.53;;;21.40;48.10;;;;;;5116514;28;20444;-66
2021/04/01 10:43:41;;;;;;;49.93;44.50;;;21.50;47.60;;;;;;5116463;28;20478;-65
2021/04/01 10:46:16;;;;;;;54.03;47.80;;;21.80;48.20;;;;;;5116563;28;20453;-65
2021/04/01 10:48:46;;;;;;;54.27;48.40;;;21.90;47.30;;;;;;5117278;28;20638;-66
2021/04/01 10:51:13;;;;;;;54.80;45.50;;;22.10;47.10;;;;;;5116961;28;20446;-66
2021/04/01 10:53:41;;;;;;;57.87;44.47;;;22.10;46.40;;;;;;5114724;28;20498;-61
2021/04/01 10:56:10;;;;;;;59.73;47.43;;;21.90;45.80;;;;;;5111548;28;20481;-63
2021/04/01 10:58:48;;;;;;;59.97;49.40;;;22.30;46.70;;;;;;5111964;28;20456;-59
2021/04/01 11:01:15;;;;;;;60.67;48.63;;;22.60;46.10;;;;;;5111856;28;20451;-61
2021/04/01 11:03:46;;;;;;;57.50;49.13;;;22.60;45.30;;;;;;5111733;28;20441;-62
2021/04/01 11:06:13;;;;;;;51.67;45.30;;;23.00;45.20;;;;;;5111880;28;20489;-62
2021/04/01 11:08:41;;;;;;;60.40;48.67;;;23.20;44.40;;;;;;5111842;28;20942;-60
2021/04/01 11:11:09;;;;;;;55.13;48.10;;;23.50;43.70;;;;;;5111914;28;20448;-61
2021/04/01 11:13:37;;;;;;;51.20;45.30;;;24.10;43.70;;;;;;5111658;28;20444;-60
2021/04/01 11:16:08;;;;;;;52.20;46.60;;;24.20;42.80;;;;;;5111806;28;20481;-62
2021/04/01 11:18:35;;;;;;;52.70;46.37;;;24.00;41.90;;;;;;5112003;28;20449;-60
2021/04/01 11:21:05;;;;;;;57.07;50.80;;;24.70;42.00;;;;;;5111808;28;20450;-61
2021/04/01 11:23:34;;;;;;;60.13;50.20;;;25.10;41.50;;;;;;5111376;28;20553;-62
2021/04/01 11:26:04;;;;;;;57.30;51.00;;;24.70;41.40;;;;;;5111693;28;20444;-64
2021/04/01 11:28:39;;;;;;;63.73;51.10;;;24.70;42.00;;;;;;5111702;28;20587;-63
2021/04/01 11:31:06;;;;;;;53.37;47.50;;;25.50;42.00;;;;;;5111661;28;20494;-62
2021/04/01 11:33:36;;;;;;;62.30;48.17;;;25.50;41.90;;;;;;5111594;28;20453;-62
2021/04/01 11:36:07;;;;;;;59.20;48.63;;;26.60;40.50;;;;;;5111394;28;20480;-62
2021/04/01 11:38:40;;;;;;;55.53;46.77;;;27.00;39.00;;;;;;5111750;28;20452;-63
2021/04/01 11:41:07;;;;;;;51.40;45.80;;;27.50;37.90;;;;;;5111561;28;20530;-63
2021/04/01 11:43:35;;;;;;;58.00;48.60;;;28.40;36.20;;;;;;5112006;28;20449;-65
2021/04/01 11:46:13;;;;;;;58.90;50.43;;;27.80;35.90;;;;;;5112841;28;20441;-65
2021/04/01 11:48:39;;;;;;;55.00;47.70;;;28.40;35.20;;;;;;5116137;28;20445;-65
2021/04/01 11:51:08;;;;;;;54.20;46.40;;;29.40;33.30;;;;;;5116904;28;20452;-66
2021/04/01 11:53:35;;;;;;;57.10;48.50;;;28.90;32.20;;;;;;5117529;28;20444;-64
2021/04/01 11:56:01;;;;;;;58.57;52.27;;;28.10;33.80;;;;;;5118074;28;20481;-65
2021/04/01 11:58:31;;;;;;;53.83;48.00;;;28.20;34.80;;;;;;5119114;28;20446;-65
2021/04/01 12:01:03;;;;;;;55.47;49.47;;;28.70;33.80;;;;;;5115787;28;20445;-63
2021/04/01 12:03:39;;;;;;;58.90;52.67;;;28.70;34.30;;;;;;5115076;28;20441;-63
2021/04/01 12:06:06;;;;;;;56.47;50.20;;;28.10;35.20;;;;;;5115268;28;20828;-63
2021/04/01 12:08:32;;;;;;;58.77;49.00;;;28.20;35.20;;;;;;5115116;28;20778;-64
2021/04/01 12:10:58;;;;;;;56.10;50.10;;;28.10;34.50;;;;;;5115006;28;20445;-64
2021/04/01 12:13:25;;;;;;;54.67;49.20;;;29.00;34.50;;;;;;5115129;28;20441;-65
2021/04/01 12:15:52;;;;;;;53.07;47.43;;;29.90;33.00;;;;;;5115223;28;20569;-64
2021/04/01 12:18:19;;;;;;;54.87;46.60;;;31.20;31.30;;;;;;5114910;28;20450;-61
2021/04/01 12:20:48;;;;;;;51.53;46.17;;;30.90;30.10;;;;;;5114885;28;20459;-63
2021/04/01 12:23:16;;;;;;;57.93;52.20;;;29.60;30.40;;;;;;5114580;28;20437;-63
2021/04/01 12:25:43;;;;;;;58.67;52.50;;;29.20;33.10;;;;;;5114812;28;20946;-64
2021/04/01 12:28:18;;;;;;;58.43;52.33;;;29.80;33.30;;;;;;5114640;28;20433;-63
2021/04/01 12:30:47;;;;;;;61.03;55.13;;;29.00;33.60;;;;;;5114740;28;20805;-64
2021/04/01 12:33:16;;;;;;;57.30;51.90;;;31.20;32.00;;;;;;5114352;28;20445;-64
2021/04/01 12:35:51;;;;;;;60.07;54.07;;;31.40;31.40;;;;;;5114491;28;20472;-61
2021/04/01 12:38:28;;;;;;;62.07;55.87;;;31.20;30.30;;;;;;5114478;28;20501;-58
2021/04/01 12:40:54;;;;;;;61.60;55.37;;;31.50;31.00;;;;;;5114508;28;20551;-61
2021/04/01 12:43:21;;;;;;;63.03;56.97;;;32.40;29.70;;;;;;5114434;28;20449;-61
2021/04/01 12:45:54;;;;;;;59.83;54.17;;;32.30;29.50;;;;;;5113952;28;20433;-61
2021/04/01 12:48:20;;;;;;;64.03;57.60;;;30.30;30.80;;;;;;5114380;28;20499;-59
2021/04/01 12:50:51;;;;;;;65.23;58.40;;;28.90;32.50;;;;;;5114264;28;20502;-63
2021/04/01 12:53:19;;;;;;;61.70;55.60;;;28.10;34.10;;;;;;5114057;28;20442;-62
2021/04/01 12:55:49;;;;;;;66.93;59.77;;;27.60;34.50;;;;;;5114163;28;20544;-64
2021/04/01 12:58:24;;;;;;;67.13;60.30;;;29.10;34.90;;;;;;5114060;28;20807;-58
2021/04/01 13:00:54;;;;;;;64.30;57.93;;;29.80;33.60;;;;;;5114024;28;20469;-58
2021/04/01 13:03:20;;;;;;;66.33;59.30;;;28.80;32.70;;;;;;5113664;28;20449;-58
2021/04/01 13:05:49;;;;;;;74.23;66.30;;;28.20;34.30;;;;;;5113519;28;20442;-60
2021/04/01 13:11:03;;;;;;;69.30;62.90;;;30.30;32.20;;;;;;5110050;28;20785;-63
2021/04/01 13:13:29;;;;;;;69.20;62.30;;;32.30;31.10;;;;;;5114076;28;20467;-64
2021/04/01 13:15:55;;;;;;;74.83;67.50;;;31.20;31.10;;;;;;5113799;28;20488;-64
2021/04/01 13:18:21;;;;;;;72.50;65.70;;;32.90;29.90;;;;;;5113989;28;20441;-65
2021/04/01 13:20:48;;;;;;;72.90;66.27;;;32.00;29.40;;;;;;5113961;28;21138;-65
2021/04/01 13:23:34;;;;;;;71.53;64.93;;;32.90;29.80;;;;;;5113526;28;20441;-65
2021/04/01 13:26:01;;;;;;;78.20;71.23;;;31.70;29.90;;;;;;5113421;28;20833;-65
2021/04/01 13:28:27;;;;;;;75.53;68.33;;;29.50;32.10;;;;;;5113528;28;20449;-64